Airfield :
LOGIN :

Register | Disclaimer

   EN    FR    IT 

 










Legend :    VFR   Marginal VFR   IFR   Intensive IFR   Very Intensive IFR
Visi :
Ceiling :
>= 8 km
>= 3000ft
5 to 8 km
1000 to 3000 ft
1500m to 5 km
500 to 1000 ft
800 to 1500m
200 to 500 ft
< 800m
< 200 ft
Symbols :   Thunderstorms  Fog  Heavy snow  Heavy precipitations  Wind > 20 kt
SIGMETs :     Misc.  Thunderstorms  Icing  Turbulence  Mountain Waves  Volcanic Ashes






- Airport Elevation : 124 ft
- IATA code : NHT


EGWU - RAF Northolt

CURRENT METAR :
  • 282150Z AUTO 21011KT 9999 OVC006/// 11/10 Q1011

EXPIRED METARs :
  • 282120Z AUTO 21010KT 9999 OVC006/// 11/10 Q1011
  • 282050Z AUTO 21010KT 9999 // OVC007/// 11/10 Q1012
  • 282020Z AUTO 22011KT 9999 // OVC007/// 11/10 Q1012
  • 281950Z AUTO 21010KT 9999 -DZ OVC007/// 11/10 Q1012
  • 281920Z AUTO 21011KT 9999 // OVC007/// 11/10 Q1013
  • 281850Z 21009KT 9999 BKN007 11/10 Q1013 TEMPO 5000 DZ BKN006 RMK GRN TEMPO YLO1
  • 281820Z 21007KT 9999 BKN006 11/10 Q1013 TEMPO 5000 DZ RMK YLO1 TEMPO YLO1
  • 281750Z 20009KT 9999 -DZ BKN006 10/10 Q1013 TEMPO 5000 DZ RMK YLO1 TEMPO YLO1
  • 281720Z 20009KT 5000 -DZ BKN007 10/09 Q1014 TEMPO 4000 DZ BKN006 RMK GRN TEMPO YLO1

TAF TAF EGWU
Valid from the 28 at 18:00 until the 29 at 12:00 UTC


281633Z 2818/2912 20010KT 9999 BKN008
TEMPO 2818/2902 5000 -RADZ BKN006
PROB40
TEMPO 2818/2824 3000 RADZ BKN004
TEMPO 2905/2910 4000 RA BKN006
TEMPO 2910/2912 BKN015



MET'MAP, your aeronautical weather chart ! - Copyright ORBIFLY December 2007 - Disclaimer

ORBIFLY MET'MAP TEAM :

Programming & Development : Alexandra Zaïnal
Original concept : Baudouin d'Aumeries
Technical & hardware support : Manuel Goepfert
Assistance : Marc-Olivier Méhu




SOURCES & CREDITS :

   NOAA